Time,TemperatureF,DewpointF,PressureIn,WindDirection,WindDirectionDegrees,WindSpeedMPH,WindSpeedGustMPH,Humidity,HourlyPrecipIn,Conditions,Clouds,dailyrainin,SoftwareType,DateUTC
2013-09-10 00:02:00,77.3,75.0,30.02,East,79,0.0,-999.0,93,-99.99,,,0.00,weatherlink.com 1.10,2013-09-10 04:02:00,
2013-09-10 00:17:00,77.1,75.0,30.01,East,79,0.0,-999.0,93,-99.99,,,0.00,weatherlink.com 1.10,2013-09-10 04:17:00,
2013-09-10 00:32:00,76.8,75.0,30.01,East,79,0.0,-999.0,94,-99.99,,,0.00,weatherlink.com 1.10,2013-09-10 04:32:00,
2013-09-10 00:47:00,76.6,75.0,30.01,East,79,0.0,-999.0,94,-99.99,,,0.00,weatherlink.com 1.10,2013-09-10 04:47:00,
2013-09-10 01:02:00,76.5,75.0,30.00,East,79,0.0,-999.0,94,-99.99,,,0.00,weatherlink.com 1.10,2013-09-10 05:02:00,
2013-09-10 01:17:00,76.4,75.0,30.00,East,79,0.0,-999.0,95,-99.99,,,0.00,weatherlink.com 1.10,2013-09-10 05:17:00,
2013-09-10 01:33:00,76.3,75.0,29.99,East,79,0.0,-999.0,95,-99.99,,,0.00,weatherlink.com 1.10,2013-09-10 05:33:00,
2013-09-10 01:48:00,76.2,75.0,29.99,East,79,0.0,-999.0,95,-99.99,,,0.00,weatherlink.com 1.10,2013-09-10 05:48:00,
2013-09-10 02:03:00,76.0,75.0,29.99,East,79,0.0,-999.0,95,-99.99,,,0.00,weatherlink.com 1.10,2013-09-10 06:03:00,
2013-09-10 02:18:00,75.9,75.0,29.99,East,79,0.0,-999.0,96,-99.99,,,0.00,weatherlink.com 1.10,2013-09-10 06:18:00,
2013-09-10 02:33:00,75.8,75.0,29.99,ENE,78,0.0,-999.0,96,-99.99,,,0.00,weatherlink.com 1.10,2013-09-10 06:33:00,
2013-09-10 02:48:00,75.7,75.0,29.99,ENE,69,0.0,-999.0,96,-99.99,,,0.00,weatherlink.com 1.10,2013-09-10 06:48:00,
2013-09-10 03:03:00,75.7,74.0,29.98,ENE,72,0.0,-999.0,95,-99.99,,,0.00,weatherlink.com 1.10,2013-09-10 07:03:00,
2013-09-10 03:18:00,75.7,74.0,29.98,ENE,71,0.0,-999.0,95,-99.99,,,0.00,weatherlink.com 1.10,2013-09-10 07:18:00,
2013-09-10 03:33:00,75.5,74.0,29.98,ENE,71,0.0,-999.0,95,-99.99,,,0.00,weatherlink.com 1.10,2013-09-10 07:33:00,
2013-09-10 03:48:00,75.5,74.0,29.98,ENE,71,0.0,-999.0,95,-99.99,,,0.00,weatherlink.com 1.10,2013-09-10 07:48:00,
2013-09-10 04:03:00,75.4,74.0,29.98,ENE,71,0.0,-999.0,95,-99.99,,,0.00,weatherlink.com 1.10,2013-09-10 08:03:00,
2013-09-10 04:18:00,75.2,74.0,29.99,ENE,71,0.0,-999.0,95,-99.99,,,0.00,weatherlink.com 1.10,2013-09-10 08:18:00,
2013-09-10 04:33:00,75.2,74.0,29.99,ENE,68,0.0,-999.0,96,-99.99,,,0.00,weatherlink.com 1.10,2013-09-10 08:33:00,
2013-09-10 04:48:00,75.0,74.0,29.99,ENE,68,0.0,-999.0,96,-99.99,,,0.00,weatherlink.com 1.10,2013-09-10 08:48:00,
2013-09-10 05:03:00,74.9,74.0,29.99,ENE,68,0.0,-999.0,96,-99.99,,,0.00,weatherlink.com 1.10,2013-09-10 09:03:00,
2013-09-10 05:18:00,74.6,73.0,29.99,ENE,68,0.0,-999.0,96,-99.99,,,0.00,weatherlink.com 1.10,2013-09-10 09:18:00,
2013-09-10 05:33:00,74.4,73.0,29.99,ENE,68,0.0,-999.0,96,-99.99,,,0.00,weatherlink.com 1.10,2013-09-10 09:33:00,
2013-09-10 05:48:00,74.3,73.0,30.00,ENE,68,0.0,-999.0,96,-99.99,,,0.00,weatherlink.com 1.10,2013-09-10 09:48:00,
2013-09-10 06:03:00,74.3,73.0,30.00,ENE,68,0.0,-999.0,96,-99.99,,,0.00,weatherlink.com 1.10,2013-09-10 10:03:00,
2013-09-10 06:18:00,74.2,73.0,30.00,ENE,71,1.0,-999.0,97,-99.99,,,0.00,weatherlink.com 1.10,2013-09-10 10:18:00,
2013-09-10 06:33:00,74.2,73.0,30.01,ENE,72,0.0,-999.0,97,-99.99,,,0.00,weatherlink.com 1.10,2013-09-10 10:33:00,
2013-09-10 06:48:00,74.2,73.0,30.01,ENE,72,0.0,-999.0,97,-99.99,,,0.00,weatherlink.com 1.10,2013-09-10 10:48:00,
2013-09-10 07:03:00,74.2,73.0,30.01,ENE,72,0.0,-999.0,97,-99.99,,,0.00,weatherlink.com 1.10,2013-09-10 11:03:00,
2013-09-10 07:18:00,74.1,73.0,30.02,ENE,72,0.0,-999.0,97,-99.99,,,0.00,weatherlink.com 1.10,2013-09-10 11:18:00,
2013-09-10 07:33:00,74.2,73.0,30.02,ENE,78,1.0,-999.0,97,-99.99,,,0.00,weatherlink.com 1.10,2013-09-10 11:33:00,
2013-09-10 07:48:00,74.6,74.0,30.03,ENE,77,1.0,-999.0,97,-99.99,,,0.00,weatherlink.com 1.10,2013-09-10 11:48:00,
2013-09-10 08:03:00,75.1,74.0,30.03,ENE,68,0.0,-999.0,97,-99.99,,,0.00,weatherlink.com 1.10,2013-09-10 12:03:00,
2013-09-10 08:18:00,75.8,75.0,30.04,ENE,66,0.0,-999.0,97,-99.99,,,0.00,weatherlink.com 1.10,2013-09-10 12:18:00,
2013-09-10 08:33:00,76.9,76.0,30.04,ENE,65,5.0,-999.0,96,-99.99,,,0.00,weatherlink.com 1.10,2013-09-10 12:33:00,
2013-09-10 08:48:00,78.2,77.0,30.04,NE,34,0.0,-999.0,95,-99.99,,,0.00,weatherlink.com 1.10,2013-09-10 12:48:00,
2013-09-10 09:03:00,79.7,78.0,30.04,East,86,6.0,-999.0,93,-99.99,,,0.00,weatherlink.com 1.10,2013-09-10 13:03:00,
2013-09-10 09:18:00,81.2,78.0,30.04,NE,46,1.0,-999.0,90,-99.99,,,0.00,weatherlink.com 1.10,2013-09-10 13:18:00,
2013-09-10 09:33:00,82.8,79.0,30.05,East,83,4.0,-999.0,88,-99.99,,,0.00,weatherlink.com 1.10,2013-09-10 13:33:00,
2013-09-10 09:48:00,84.1,79.0,30.05,East,98,11.0,-999.0,83,-99.99,,,0.00,weatherlink.com 1.10,2013-09-10 13:48:00,
2013-09-10 10:03:00,85.5,79.0,30.05,East,94,6.0,-999.0,80,-99.99,,,0.00,weatherlink.com 1.10,2013-09-10 14:03:00,
2013-09-10 10:18:00,86.8,79.0,30.05,ENE,61,7.0,-999.0,78,-99.99,,,0.00,weatherlink.com 1.10,2013-09-10 14:18:00,
2013-09-10 10:33:00,87.9,79.0,30.06,ESE,109,12.0,-999.0,75,-99.99,,,0.00,weatherlink.com 1.10,2013-09-10 14:33:00,
2013-09-10 10:48:00,88.8,79.0,30.05,ESE,113,13.0,-999.0,73,-99.99,,,0.00,weatherlink.com 1.10,2013-09-10 14:48:00,
2013-09-10 11:03:00,89.7,80.0,30.05,East,85,0.0,-999.0,72,-99.99,,,0.00,weatherlink.com 1.10,2013-09-10 15:03:00,
2013-09-10 11:18:00,90.1,80.0,30.06,ENE,60,11.0,-999.0,72,-99.99,,,0.00,weatherlink.com 1.10,2013-09-10 15:18:00,
2013-09-10 11:33:00,90.2,78.0,30.05,East,89,5.0,-999.0,68,-99.99,,,0.00,weatherlink.com 1.10,2013-09-10 15:33:00,
2013-09-10 11:48:00,90.9,78.0,30.05,East,84,7.0,-999.0,66,-99.99,,,0.00,weatherlink.com 1.10,2013-09-10 15:48:00,
2013-09-10 12:03:00,90.8,79.0,30.05,ENE,73,5.0,-999.0,68,-99.99,,,0.00,weatherlink.com 1.10,2013-09-10 16:03:00,
2013-09-10 12:18:00,90.5,78.0,30.04,ENE,62,8.0,-999.0,67,-99.99,,,0.00,weatherlink.com 1.10,2013-09-10 16:18:00,
2013-09-10 12:33:00,91.2,78.0,30.04,NE,45,0.0,-999.0,66,-99.99,,,0.00,weatherlink.com 1.10,2013-09-10 16:33:00,
2013-09-10 12:48:00,92.0,79.0,30.03,East,99,14.0,-999.0,65,-99.99,,,0.00,weatherlink.com 1.10,2013-09-10 16:48:00,
2013-09-10 13:03:00,91.2,77.0,30.03,ESE,113,8.0,-999.0,64,-99.99,,,0.00,weatherlink.com 1.10,2013-09-10 17:03:00,
2013-09-10 13:18:00,91.6,78.0,30.03,NE,37,5.0,-999.0,64,-99.99,,,0.00,weatherlink.com 1.10,2013-09-10 17:18:00,
2013-09-10 13:48:00,93.3,79.0,30.02,ENE,67,3.0,-999.0,63,-99.99,,,0.00,weatherlink.com 1.10,2013-09-10 17:48:00,
2013-09-10 14:03:00,93.0,78.0,30.02,ENE,75,4.0,-999.0,61,-99.99,,,0.00,weatherlink.com 1.10,2013-09-10 18:03:00,
2013-09-10 14:18:00,92.5,77.0,30.01,East,92,8.0,-999.0,60,-99.99,,,0.00,weatherlink.com 1.10,2013-09-10 18:18:00,
2013-09-10 14:30:00,-999.0,-99.9,0.00,North,-999,-999.0,-999.0,-999,-99.99,,,0.00,weatherlink.com 1.10,2013-09-10 18:30:00,
2013-09-10 14:42:00,-999.0,-99.9,30.00,North,-999,-999.0,-999.0,-999,-99.99,,,0.00,weatherlink.com 1.10,2013-09-10 18:42:00,
2013-09-10 14:57:00,-999.0,-99.9,0.00,North,-999,-999.0,-999.0,-999,-99.99,,,0.00,weatherlink.com 1.10,2013-09-10 18:57:00,
2013-09-10 15:09:00,-999.0,-99.9,30.00,North,-999,-999.0,-999.0,-999,-99.99,,,0.00,weatherlink.com 1.10,2013-09-10 19:09:00,
2013-09-10 15:25:00,88.6,79.0,29.99,ENE,57,5.0,-999.0,72,-99.99,,,0.00,weatherlink.com 1.10,2013-09-10 19:25:00,
2013-09-10 15:40:00,90.9,79.0,29.99,NE,55,8.0,-999.0,68,-99.99,,,0.00,weatherlink.com 1.10,2013-09-10 19:40:00,
2013-09-10 15:55:00,92.3,79.0,29.98,NE,50,10.0,-999.0,66,-99.99,,,0.00,weatherlink.com 1.10,2013-09-10 19:55:00,
2013-09-10 16:10:00,87.3,74.0,29.99,ESE,109,13.0,-999.0,65,-99.99,,,0.00,weatherlink.com 1.10,2013-09-10 20:10:00,
2013-09-10 16:25:00,84.7,75.0,29.98,East,101,0.0,-999.0,72,-99.99,,,0.00,weatherlink.com 1.10,2013-09-10 20:25:00,
2013-09-10 16:40:00,86.6,76.0,29.99,East,82,5.0,-999.0,70,-99.99,,,0.00,weatherlink.com 1.10,2013-09-10 20:40:00,
2013-09-10 16:55:00,87.5,77.0,29.99,ESE,117,5.0,-999.0,70,-99.99,,,0.00,weatherlink.com 1.10,2013-09-10 20:55:00,
2013-09-10 17:10:00,88.3,76.0,29.98,ENE,73,6.0,-999.0,67,-99.99,,,0.00,weatherlink.com 1.10,2013-09-10 21:10:00,
2013-09-10 17:25:00,86.1,74.0,29.98,East,96,9.0,-999.0,67,-99.99,,,0.00,weatherlink.com 1.10,2013-09-10 21:25:00,
2013-09-10 17:40:00,85.0,72.0,30.00,ESE,108,4.0,-999.0,66,-99.99,,,0.00,weatherlink.com 1.10,2013-09-10 21:40:00,
2013-09-10 17:55:00,85.9,74.0,30.00,ENE,59,8.0,-999.0,68,-99.99,,,0.00,weatherlink.com 1.10,2013-09-10 21:55:00,
2013-09-10 18:10:00,87.1,76.0,30.01,ENE,73,10.0,-999.0,70,-99.99,,,0.00,weatherlink.com 1.10,2013-09-10 22:10:00,
2013-09-10 18:25:00,85.5,75.0,30.02,ESE,111,9.0,-999.0,70,-99.99,,,0.00,weatherlink.com 1.10,2013-09-10 22:25:00,
2013-09-10 18:40:00,84.0,75.0,30.02,East,99,4.0,-999.0,73,-99.99,,,0.00,weatherlink.com 1.10,2013-09-10 22:40:00,
2013-09-10 18:55:00,82.9,74.0,30.02,ESE,103,12.0,-999.0,75,-99.99,,,0.00,weatherlink.com 1.10,2013-09-10 22:55:00,
2013-09-10 19:10:00,81.5,74.0,30.03,ESE,106,5.0,-999.0,78,-99.99,,,0.00,weatherlink.com 1.10,2013-09-10 23:10:00,
2013-09-10 19:25:00,80.0,74.0,30.03,ESE,123,7.0,-999.0,81,-99.99,,,0.00,weatherlink.com 1.10,2013-09-10 23:25:00,
2013-09-10 19:40:00,79.2,74.0,30.02,East,87,3.0,-999.0,83,-99.99,,,0.00,weatherlink.com 1.10,2013-09-10 23:40:00,
2013-09-10 19:55:00,78.8,74.0,30.03,East,90,8.0,-999.0,85,-99.99,,,0.00,weatherlink.com 1.10,2013-09-10 23:55:00,
2013-09-10 20:10:00,78.6,74.0,30.03,ESE,103,2.0,-999.0,85,-99.99,,,0.00,weatherlink.com 1.10,2013-09-11 00:10:00,
2013-09-10 20:25:00,78.5,74.0,30.04,ESE,108,0.0,-999.0,85,-99.99,,,0.00,weatherlink.com 1.10,2013-09-11 00:25:00,
2013-09-10 20:40:00,78.4,74.0,30.03,ESE,107,0.0,-999.0,86,-99.99,,,0.00,weatherlink.com 1.10,2013-09-11 00:40:00,
2013-09-10 20:55:00,78.2,74.0,30.03,ENE,72,0.0,-999.0,87,-99.99,,,0.00,weatherlink.com 1.10,2013-09-11 00:55:00,
2013-09-10 21:10:00,78.1,74.0,30.04,East,86,3.0,-999.0,88,-99.99,,,0.00,weatherlink.com 1.10,2013-09-11 01:10:00,
2013-09-10 21:25:00,78.0,75.0,30.04,ENE,75,0.0,-999.0,89,-99.99,,,0.00,weatherlink.com 1.10,2013-09-11 01:25:00,
2013-09-10 21:40:00,78.0,75.0,30.04,East,90,0.0,-999.0,89,-99.99,,,0.00,weatherlink.com 1.10,2013-09-11 01:40:00,
2013-09-10 21:55:00,77.9,75.0,30.04,ENE,75,3.0,-999.0,90,-99.99,,,0.00,weatherlink.com 1.10,2013-09-11 01:55:00,
2013-09-10 22:10:00,77.8,75.0,30.05,East,82,4.0,-999.0,90,-99.99,,,0.00,weatherlink.com 1.10,2013-09-11 02:10:00,
2013-09-10 22:25:00,77.7,75.0,30.05,ENE,61,0.0,-999.0,90,-99.99,,,0.00,weatherlink.com 1.10,2013-09-11 02:25:00,
2013-09-10 22:40:00,77.5,74.0,30.06,ENE,71,0.0,-999.0,90,-99.99,,,0.00,weatherlink.com 1.10,2013-09-11 02:40:00,
2013-09-10 22:55:00,77.4,75.0,30.06,ENE,69,0.0,-999.0,91,-99.99,,,0.00,weatherlink.com 1.10,2013-09-11 02:55:00,
2013-09-10 23:11:00,77.2,75.0,30.05,ENE,78,0.0,-999.0,92,-99.99,,,0.00,weatherlink.com 1.10,2013-09-11 03:11:00,
2013-09-10 23:26:00,77.0,75.0,30.05,ENE,78,1.0,-999.0,92,-99.99,,,0.00,weatherlink.com 1.10,2013-09-11 03:26:00,
2013-09-10 23:41:00,76.9,75.0,30.05,East,85,0.0,-999.0,92,-99.99,,,0.00,weatherlink.com 1.10,2013-09-11 03:41:00,
2013-09-10 23:56:00,76.7,75.0,30.05,East,80,4.0,-999.0,93,-99.99,,,0.00,weatherlink.com 1.10,2013-09-11 03:56:00,